You are not logged in, Click here to log in
ICAO: LSGG Country: 瑞士日內瓦
Latitude: 46.2381 Longitude: 6.10895
Total Arrivals: 18 Total Departures: 16
Latest Arrival: TP948 (LPPT-LSGG)ALAN. LIU Latest Departure: ME6480 (LSGG-EKCH)ALAN. LIU
Scenery:
METAR : LSGG 170650Z 03004KT 340V100 9999 FEW027 17/12 Q1019 NOSIG

日內瓦克萬特蘭國際機場GVA